CYZF

Yellowknife Airport

Yellowknife, Northwest Territories, Canada
METAR CYZF 200000Z 08005KT 10SM -SN BKN035 OVC040 M14/M16 A2968 RMK SC5SC3 SLP073
Observed Flight Rules
Jan-20 @ 00:00 UTC (an hour ago) Visual Flight Rules
Wind Visibility Clouds Conditions
80° at 5 knots 10 miles
  • Broken at 3,500' AGL
  • Overcast at 4,000' AGL
  • Light Snow
Temperatures Readings
Current -14°C / 7°F
Dewpoint -16°C / 3°F
Humidity 85%
Altimeter 29.68" Hg
Pressure 1007.3 hPa
Elevation 206
METAR CYZF 200000Z 08005KT 10SM -SN BKN035 OVC040 M14/M16 A2968 RMK SC5SC3 SLP073
Observed Flight Rules
Jan-20 @ 00:00 UTC
(an hour ago)
VFR
Wind Visibility
80° at 5 knots 10 miles
Clouds
  • Broken at 3,500' AGL
  • Overcast at 4,000' AGL
Conditions
  • Light Snow
Temperature Dewpoint
-14°C / 7°F -16°C / 3°F
Humidity Altimeter Pressure
85% 29.68" Hg 1007.3 hPa